Time;durP1;ratioP1;P1;durP2;ratioP2;P2;SDS_P1;SDS_P2;PMS_P1;PMS_P2;Temp;Humidity;BMP_temperature;BMP_pressure;BME280_temperature;BME280_humidity;BME280_pressure;Samples;Min_cycle;Max_cycle;Signal;HPM_P1;HPM_P2
2022/07/06 00:01:20;;;;;;;3.67;1.80;;;15.90;99.90;;;;;;5132980;27;20703;-54
2022/07/06 00:03:46;;;;;;;3.10;2.08;;;15.90;99.90;;;;;;5132792;27;20164;-54
2022/07/06 00:06:12;;;;;;;4.38;2.25;;;15.80;99.90;;;;;;5132904;27;20174;-54
2022/07/06 00:08:38;;;;;;;3.25;2.00;;;15.70;99.90;;;;;;5132792;28;20550;-54
2022/07/06 00:11:04;;;;;;;4.95;2.55;;;15.70;99.90;;;;;;5132684;27;20274;-54
2022/07/06 00:13:30;;;;;;;3.92;1.80;;;15.70;99.90;;;;;;5132834;27;20177;-54
2022/07/06 00:15:56;;;;;;;4.07;2.05;;;15.50;99.90;;;;;;5132160;28;20326;-54
2022/07/06 00:18:21;;;;;;;3.38;1.98;;;15.50;99.90;;;;;;5132654;28;20613;-55
2022/07/06 00:20:47;;;;;;;5.28;2.28;;;15.40;99.90;;;;;;5132664;28;20171;-55
2022/07/06 00:23:13;;;;;;;2.42;2.22;;;15.40;99.90;;;;;;5133271;27;20206;-55
2022/07/06 00:25:39;;;;;;;6.47;2.15;;;15.40;99.90;;;;;;5136822;27;20267;-55
2022/07/06 00:28:04;;;;;;;3.90;2.25;;;15.40;99.90;;;;;;5136814;27;20183;-55
2022/07/06 00:30:30;;;;;;;4.15;2.17;;;15.40;99.90;;;;;;5136718;27;20557;-55
2022/07/06 00:32:57;;;;;;;3.72;2.20;;;15.40;99.90;;;;;;5137078;27;20643;-55
2022/07/06 00:35:24;;;;;;;6.53;2.38;;;15.40;99.90;;;;;;5136933;27;20199;-55
2022/07/06 00:37:50;;;;;;;3.22;2.10;;;15.40;99.90;;;;;;5136710;27;20156;-55
2022/07/06 00:40:16;;;;;;;4.40;2.45;;;15.40;99.90;;;;;;5136631;27;20225;-55
2022/07/06 00:42:43;;;;;;;5.82;2.33;;;15.40;99.90;;;;;;5136576;27;20562;-55
2022/07/06 00:45:11;;;;;;;2.80;1.98;;;15.50;99.90;;;;;;5136473;27;20175;-55
2022/07/06 00:47:38;;;;;;;4.10;2.30;;;15.40;99.90;;;;;;5136749;27;20581;-55
2022/07/06 00:50:14;;;;;;;5.47;2.20;;;15.40;99.90;;;;;;5136544;27;20207;-55
2022/07/06 00:52:45;;;;;;;4.18;2.70;;;15.40;99.90;;;;;;5136633;27;20156;-55
2022/07/06 00:55:12;;;;;;;7.07;2.88;;;15.40;99.90;;;;;;5136405;27;20176;-55
2022/07/06 00:57:39;;;;;;;4.65;2.10;;;15.40;99.90;;;;;;5136282;27;20646;-54
2022/07/06 01:00:07;;;;;;;3.95;2.15;;;15.30;99.90;;;;;;5136330;27;20538;-55
2022/07/06 01:02:34;;;;;;;3.70;2.03;;;15.40;99.90;;;;;;5136090;27;20208;-55
2022/07/06 01:05:00;;;;;;;4.18;2.08;;;15.30;99.90;;;;;;5134747;27;20632;-55
2022/07/06 01:07:25;;;;;;;6.95;1.83;;;15.30;99.90;;;;;;5136433;27;20175;-55
2022/07/06 01:09:51;;;;;;;5.22;2.30;;;15.40;99.90;;;;;;5135954;27;20196;-55
2022/07/06 01:12:17;;;;;;;5.75;1.90;;;15.30;99.90;;;;;;5135977;27;20168;-55
2022/07/06 01:14:44;;;;;;;2.58;2.13;;;15.20;99.90;;;;;;5135887;27;20202;-55
2022/07/06 01:17:10;;;;;;;4.45;2.05;;;15.00;99.90;;;;;;5135821;27;20208;-55
2022/07/06 01:19:36;;;;;;;4.13;2.22;;;15.00;99.90;;;;;;5135793;27;20164;-55
2022/07/06 01:22:02;;;;;;;2.63;2.00;;;15.00;99.90;;;;;;5135970;27;20501;-55
2022/07/06 01:24:28;;;;;;;6.78;2.58;;;14.80;99.90;;;;;;5135989;27;20243;-55
2022/07/06 01:26:54;;;;;;;4.40;2.25;;;14.80;99.90;;;;;;5135493;27;20311;-55
2022/07/06 01:29:19;;;;;;;4.20;2.33;;;14.90;99.90;;;;;;5135765;27;20203;-55
2022/07/06 01:31:50;;;;;;;2.75;2.08;;;14.80;99.90;;;;;;5135590;27;20572;-55
2022/07/06 01:34:17;;;;;;;4.80;2.00;;;14.80;99.90;;;;;;5134869;27;20246;-55
2022/07/06 01:36:44;;;;;;;5.63;2.50;;;14.80;99.90;;;;;;5135383;27;20168;-55
2022/07/06 01:39:10;;;;;;;3.47;2.20;;;14.60;99.90;;;;;;5135419;27;20160;-55
2022/07/06 01:41:36;;;;;;;5.55;2.35;;;14.50;99.90;;;;;;5135361;27;20179;-55
2022/07/06 01:44:02;;;;;;;4.97;2.60;;;14.50;99.90;;;;;;5134068;27;20180;-55
2022/07/06 01:46:28;;;;;;;1.98;1.60;;;14.50;99.90;;;;;;5135883;27;20168;-55
2022/07/06 01:48:54;;;;;;;5.20;2.20;;;14.40;99.90;;;;;;5135155;27;20632;-55
2022/07/06 01:51:19;;;;;;;3.35;2.05;;;14.40;99.90;;;;;;5135162;27;20193;-54
2022/07/06 01:53:46;;;;;;;2.92;2.38;;;14.50;99.90;;;;;;5135272;27;20172;-54
2022/07/06 01:56:12;;;;;;;4.68;2.88;;;14.50;99.90;;;;;;5135150;27;20187;-54
2022/07/06 01:58:38;;;;;;;2.97;2.00;;;14.50;99.90;;;;;;5135141;27;20168;-54
2022/07/06 02:01:09;;;;;;;4.93;2.50;;;14.40;99.90;;;;;;5135585;27;20172;-54
2022/07/06 02:03:34;;;;;;;4.57;2.70;;;14.30;99.90;;;;;;5135080;27;20168;-54
2022/07/06 02:06:00;;;;;;;3.35;2.20;;;14.20;99.90;;;;;;5134932;27;20216;-54
2022/07/06 02:08:26;;;;;;;5.30;2.33;;;14.30;99.90;;;;;;5135406;27;20172;-54
2022/07/06 02:10:51;;;;;;;4.53;2.90;;;14.40;99.90;;;;;;5134763;27;20630;-54
2022/07/06 02:13:17;;;;;;;4.88;2.80;;;14.50;99.90;;;;;;5134746;27;20156;-54
2022/07/06 02:15:42;;;;;;;2.90;2.22;;;14.60;99.90;;;;;;5134769;27;20576;-54
2022/07/06 02:18:08;;;;;;;3.58;2.50;;;14.60;99.90;;;;;;5134641;27;20164;-54
2022/07/06 02:20:33;;;;;;;5.95;2.53;;;14.50;99.90;;;;;;5134660;27;20182;-54
2022/07/06 02:22:59;;;;;;;6.22;2.40;;;14.50;99.90;;;;;;5134827;27;20191;-54
2022/07/06 02:25:25;;;;;;;3.85;2.50;;;14.40;99.90;;;;;;5134756;27;20290;-54
2022/07/06 02:27:50;;;;;;;3.50;2.40;;;14.40;99.90;;;;;;5134467;27;20637;-54
2022/07/06 02:30:16;;;;;;;3.75;2.28;;;14.40;99.90;;;;;;5134316;27;20203;-54
2022/07/06 02:32:42;;;;;;;4.65;2.65;;;14.40;99.90;;;;;;5134429;27;20520;-54
2022/07/06 02:35:08;;;;;;;6.30;2.45;;;14.50;99.90;;;;;;5133049;27;20168;-54
2022/07/06 02:37:33;;;;;;;3.95;2.30;;;14.50;99.90;;;;;;5134264;27;20242;-54
2022/07/06 02:39:59;;;;;;;5.00;2.60;;;14.50;99.90;;;;;;5134630;27;20221;-54
2022/07/06 02:42:25;;;;;;;4.95;2.88;;;14.40;99.90;;;;;;5134548;27;20528;-54
2022/07/06 02:44:53;;;;;;;3.22;2.70;;;14.30;99.90;;;;;;5134205;27;20164;-54
2022/07/06 02:47:18;;;;;;;2.60;2.40;;;14.40;99.90;;;;;;5133171;27;20164;-55
2022/07/06 02:49:44;;;;;;;3.78;2.53;;;14.30;99.90;;;;;;5134162;27;20225;-54
2022/07/06 02:52:10;;;;;;;6.60;2.60;;;14.20;99.90;;;;;;5134085;27;20251;-55
2022/07/06 02:54:35;;;;;;;4.50;2.80;;;14.40;99.90;;;;;;5133969;27;20209;-55
2022/07/06 02:57:01;;;;;;;4.72;2.42;;;14.30;99.90;;;;;;5133907;27;20250;-54
2022/07/06 02:59:26;;;;;;;3.33;2.75;;;14.20;99.90;;;;;;5134129;27;20160;-54
2022/07/06 03:01:52;;;;;;;3.65;2.60;;;14.30;99.90;;;;;;5133799;27;20197;-54
2022/07/06 03:04:18;;;;;;;7.03;2.65;;;14.20;99.90;;;;;;5134039;27;20159;-55
2022/07/06 03:06:43;;;;;;;6.03;2.85;;;14.10;99.90;;;;;;5132375;27;20172;-54
2022/07/06 03:09:09;;;;;;;5.03;2.80;;;14.20;99.90;;;;;;5133636;27;20217;-54
2022/07/06 03:11:35;;;;;;;4.65;2.90;;;14.30;99.90;;;;;;5133645;27;20625;-54
2022/07/06 03:14:03;;;;;;;6.10;2.80;;;14.20;99.90;;;;;;5133458;27;20164;-54
2022/07/06 03:16:29;;;;;;;4.13;2.35;;;14.10;99.90;;;;;;5133833;27;20251;-54
2022/07/06 03:18:54;;;;;;;3.17;2.72;;;14.10;99.90;;;;;;5133760;27;20195;-54
2022/07/06 03:21:20;;;;;;;4.28;2.53;;;14.10;99.90;;;;;;5133461;27;20610;-54
2022/07/06 03:23:46;;;;;;;7.30;2.95;;;14.20;99.90;;;;;;5133423;27;20171;-55
2022/07/06 03:26:11;;;;;;;5.97;2.72;;;14.20;99.90;;;;;;5133282;27;20219;-54
2022/07/06 03:28:37;;;;;;;3.33;2.65;;;14.20;99.90;;;;;;5133459;27;20168;-55
2022/07/06 03:31:02;;;;;;;10.50;3.08;;;14.30;99.90;;;;;;5133319;27;20684;-54
2022/07/06 03:33:28;;;;;;;3.50;2.50;;;14.20;99.90;;;;;;5133569;27;20156;-54
2022/07/06 03:35:53;;;;;;;2.97;2.65;;;14.20;99.90;;;;;;5133294;27;20221;-55
2022/07/06 03:38:19;;;;;;;3.50;2.60;;;14.20;99.90;;;;;;5133205;27;20188;-55
2022/07/06 03:40:45;;;;;;;4.70;3.35;;;14.20;99.90;;;;;;5133153;27;20167;-55
2022/07/06 03:43:10;;;;;;;4.85;3.10;;;14.20;99.90;;;;;;5131829;27;20172;-55
2022/07/06 03:45:36;;;;;;;8.27;2.95;;;14.10;99.90;;;;;;5133149;27;20168;-55
2022/07/06 03:48:01;;;;;;;5.70;2.90;;;14.20;99.90;;;;;;5133012;27;20167;-55
2022/07/06 03:50:27;;;;;;;6.38;3.25;;;14.20;99.90;;;;;;5133307;27;20624;-55
2022/07/06 03:52:52;;;;;;;3.60;2.90;;;14.20;99.90;;;;;;5132919;27;20160;-55
2022/07/06 03:55:18;;;;;;;3.20;2.90;;;14.20;99.90;;;;;;5132903;27;20290;-55
2022/07/06 03:57:44;;;;;;;5.18;2.85;;;14.30;99.90;;;;;;5132748;27;20193;-54
2022/07/06 04:00:10;;;;;;;7.35;2.95;;;14.30;99.90;;;;;;5133133;27;20167;-55
2022/07/06 04:02:36;;;;;;;4.85;3.10;;;14.30;99.90;;;;;;5132894;27;20230;-54
2022/07/06 04:05:01;;;;;;;7.20;3.08;;;14.30;99.90;;;;;;5132747;27;20628;-55
2022/07/06 04:07:27;;;;;;;5.03;2.92;;;14.30;99.90;;;;;;5133154;28;20168;-54
2022/07/06 04:09:52;;;;;;;3.80;2.67;;;14.20;99.90;;;;;;5132701;28;20675;-54
2022/07/06 04:12:18;;;;;;;7.57;3.33;;;14.20;99.90;;;;;;5132811;28;20156;-54
2022/07/06 04:14:44;;;;;;;2.97;2.65;;;14.30;99.90;;;;;;5132797;28;20198;-54
2022/07/06 04:19:53;;;;;;;8.05;3.25;;;14.30;99.90;;;;;;5132753;28;20178;-55
2022/07/06 04:22:19;;;;;;;5.82;2.78;;;14.10;99.90;;;;;;5132708;28;20164;-54
2022/07/06 04:24:45;;;;;;;4.55;2.47;;;14.20;99.90;;;;;;5132492;28;20168;-54
2022/07/06 04:27:10;;;;;;;4.93;2.42;;;14.30;99.90;;;;;;5132951;28;20212;-54
2022/07/06 04:29:36;;;;;;;4.82;2.85;;;14.40;99.90;;;;;;5132557;28;20199;-54
2022/07/06 04:32:02;;;;;;;6.07;2.88;;;14.60;99.90;;;;;;5132619;28;20285;-53
2022/07/06 04:34:28;;;;;;;5.85;2.60;;;14.60;99.90;;;;;;5132888;27;20168;-54
2022/07/06 04:36:53;;;;;;;4.00;2.70;;;14.70;99.90;;;;;;5132442;28;20168;-53
2022/07/06 04:39:19;;;;;;;2.60;2.40;;;14.60;99.90;;;;;;5132490;28;20266;-53
2022/07/06 04:41:44;;;;;;;3.70;2.63;;;14.80;99.90;;;;;;5132511;28;20168;-53
2022/07/06 04:44:10;;;;;;;5.07;2.75;;;15.00;99.90;;;;;;5132540;28;20255;-54
2022/07/06 04:46:35;;;;;;;7.50;2.78;;;15.00;99.90;;;;;;5132714;28;20156;-53
2022/07/06 04:49:01;;;;;;;7.55;2.85;;;14.90;99.90;;;;;;5132286;28;20221;-53
2022/07/06 04:51:27;;;;;;;5.53;2.85;;;15.10;99.90;;;;;;5132684;28;20203;-54
2022/07/06 04:53:53;;;;;;;5.18;2.60;;;15.20;99.90;;;;;;5132349;28;20166;-53
2022/07/06 04:56:18;;;;;;;3.75;2.33;;;15.30;99.90;;;;;;5132366;27;20164;-54
2022/07/06 04:58:44;;;;;;;4.18;2.38;;;15.50;99.90;;;;;;5132374;28;20293;-53
2022/07/06 05:01:10;;;;;;;5.00;2.60;;;15.50;99.90;;;;;;5131139;28;20167;-54
2022/07/06 05:03:39;;;;;;;4.15;2.25;;;15.50;99.90;;;;;;5131016;28;20206;-53
2022/07/06 05:06:05;;;;;;;5.03;2.50;;;15.80;99.90;;;;;;5132140;27;20160;-54
2022/07/06 05:08:31;;;;;;;9.68;2.47;;;15.90;99.90;;;;;;5132228;27;20648;-54
2022/07/06 05:10:56;;;;;;;5.72;2.47;;;16.10;99.90;;;;;;5135717;27;20207;-54
2022/07/06 05:13:22;;;;;;;2.78;2.38;;;16.10;99.90;;;;;;5135846;27;20248;-54
2022/07/06 05:15:48;;;;;;;5.57;2.40;;;16.10;99.90;;;;;;5135842;27;20172;-54
2022/07/06 05:18:13;;;;;;;5.53;2.20;;;16.30;99.90;;;;;;5135821;27;20171;-53
2022/07/06 05:20:39;;;;;;;8.65;2.90;;;16.20;99.90;;;;;;5135720;27;20247;-53
2022/07/06 05:23:05;;;;;;;9.10;2.72;;;16.20;99.90;;;;;;5135810;27;20168;-54
2022/07/06 05:25:31;;;;;;;7.25;3.25;;;16.10;99.90;;;;;;5134966;27;20215;-54
2022/07/06 05:27:56;;;;;;;5.18;2.50;;;16.20;99.90;;;;;;5136169;27;20171;-54
2022/07/06 05:30:22;;;;;;;7.57;2.60;;;16.20;99.90;;;;;;5135119;27;20203;-54
2022/07/06 05:32:48;;;;;;;8.02;2.60;;;16.20;99.90;;;;;;5135385;27;20171;-57
2022/07/06 05:35:13;;;;;;;5.05;2.97;;;16.20;99.90;;;;;;5135406;27;20230;-53
2022/07/06 05:37:39;;;;;;;10.65;3.35;;;16.10;99.90;;;;;;5135616;27;20168;-54
2022/07/06 05:40:05;;;;;;;8.77;3.65;;;16.10;99.90;;;;;;5135395;27;20532;-53
2022/07/06 05:42:30;;;;;;;6.93;3.00;;;16.10;99.90;;;;;;5135298;27;20174;-54
2022/07/06 05:44:56;;;;;;;9.63;2.92;;;16.10;99.90;;;;;;5135579;27;20246;-54
2022/07/06 05:50:13;;;;;;;5.35;2.78;;;16.40;99.90;;;;;;5135323;27;20211;-54
2022/07/06 05:52:44;;;;;;;9.82;3.05;;;16.40;99.90;;;;;;5135138;27;20251;-54
2022/07/06 05:55:11;;;;;;;4.75;2.33;;;16.40;99.90;;;;;;5135360;27;20543;-53
2022/07/06 05:57:37;;;;;;;7.80;3.30;;;16.40;99.90;;;;;;5135136;27;20255;-54
2022/07/06 06:00:04;;;;;;;5.97;2.67;;;16.40;99.90;;;;;;5135144;27;20222;-53
2022/07/06 06:02:40;;;;;;;9.88;2.88;;;16.60;99.90;;;;;;5134872;27;20172;-54
2022/07/06 06:05:08;;;;;;;6.03;2.92;;;16.70;99.90;;;;;;5134898;27;20167;-53
2022/07/06 06:07:35;;;;;;;12.52;3.03;;;16.90;99.90;;;;;;5135131;27;20232;-54
2022/07/06 06:10:06;;;;;;;5.72;3.50;;;16.90;99.90;;;;;;5134718;27;20191;-53
2022/07/06 06:12:32;;;;;;;8.60;3.20;;;16.70;99.90;;;;;;5135097;27;20236;-54
2022/07/06 06:14:57;;;;;;;9.77;3.25;;;16.80;99.90;;;;;;5135245;27;20628;-54
2022/07/06 06:17:23;;;;;;;5.72;3.03;;;16.80;99.90;;;;;;5134620;27;20528;-54
2022/07/06 06:19:49;;;;;;;7.70;3.50;;;16.90;99.90;;;;;;5134631;27;20208;-54
2022/07/06 06:22:14;;;;;;;6.30;3.15;;;17.10;99.90;;;;;;5134608;27;20175;-54
2022/07/06 06:24:40;;;;;;;6.40;3.58;;;17.40;99.90;;;;;;5134542;27;20643;-54
2022/07/06 06:27:07;;;;;;;11.90;3.70;;;17.30;99.90;;;;;;5134729;27;20268;-54
2022/07/06 06:29:33;;;;;;;7.75;3.72;;;17.40;99.90;;;;;;5134544;27;20571;-54
2022/07/06 06:31:58;;;;;;;6.13;3.08;;;17.20;99.90;;;;;;5134963;27;20164;-53
2022/07/06 06:34:24;;;;;;;10.95;3.28;;;17.30;99.90;;;;;;5134272;27;20163;-54
2022/07/06 06:36:50;;;;;;;4.35;2.78;;;17.60;99.90;;;;;;5133038;27;20532;-54
2022/07/06 06:39:16;;;;;;;9.18;3.10;;;17.80;99.90;;;;;;5134254;27;20160;-54
2022/07/06 06:41:41;;;;;;;9.05;3.47;;;18.00;99.90;;;;;;5134580;27;20246;-54
2022/07/06 06:44:07;;;;;;;7.43;2.92;;;17.70;99.90;;;;;;5134269;27;20628;-54
2022/07/06 06:46:33;;;;;;;7.85;2.83;;;17.90;99.90;;;;;;5134184;27;20190;-54
2022/07/06 06:48:59;;;;;;;6.28;2.83;;;18.10;99.90;;;;;;5134382;27;20657;-54
2022/07/06 06:51:24;;;;;;;14.25;2.22;;;18.40;99.90;;;;;;5133888;27;20164;-54
2022/07/06 06:53:50;;;;;;;5.32;1.67;;;18.50;99.90;;;;;;5133942;27;20249;-54
2022/07/06 06:56:16;;;;;;;6.93;1.88;;;18.80;99.90;;;;;;5133926;27;20655;-54
2022/07/06 06:58:42;;;;;;;10.23;1.80;;;18.60;99.90;;;;;;5133972;27;20175;-54
2022/07/06 07:01:08;;;;;;;5.28;1.80;;;18.90;99.90;;;;;;5132650;27;20639;-54
2022/07/06 07:03:34;;;;;;;5.53;1.60;;;18.80;99.90;;;;;;5133730;27;20190;-54
2022/07/06 07:06:00;;;;;;;4.03;2.05;;;18.70;99.90;;;;;;5132460;27;20165;-54
2022/07/06 07:08:26;;;;;;;9.45;2.10;;;18.80;99.90;;;;;;5134092;27;20179;-55
2022/07/06 07:10:51;;;;;;;5.32;1.80;;;18.60;99.90;;;;;;5133650;27;20687;-54
2022/07/06 07:13:17;;;;;;;5.97;1.60;;;18.60;99.90;;;;;;5133681;27;20171;-54
2022/07/06 07:15:43;;;;;;;5.32;1.50;;;18.80;99.90;;;;;;5133962;27;20254;-54
2022/07/06 07:18:09;;;;;;;4.78;1.40;;;18.90;99.90;;;;;;5133557;27;20168;-54
2022/07/06 07:20:34;;;;;;;1.65;1.38;;;19.10;99.90;;;;;;5133753;27;20558;-54
2022/07/06 07:23:00;;;;;;;5.18;1.45;;;19.20;99.90;;;;;;5132265;27;20168;-54
2022/07/06 07:25:27;;;;;;;5.20;1.38;;;19.00;99.90;;;;;;5133721;27;20668;-54
2022/07/06 07:27:53;;;;;;;2.70;1.58;;;19.30;99.90;;;;;;5133613;27;20171;-54
2022/07/06 07:30:20;;;;;;;4.88;1.45;;;19.60;99.90;;;;;;5133230;27;20196;-54
2022/07/06 07:32:46;;;;;;;3.05;1.33;;;19.40;99.90;;;;;;5132902;27;20156;-54
2022/07/06 07:35:12;;;;;;;6.55;1.33;;;19.20;99.90;;;;;;5133283;27;20186;-54
2022/07/06 07:37:38;;;;;;;7.03;1.67;;;19.20;99.90;;;;;;5131928;27;20168;-54
2022/07/06 07:40:05;;;;;;;2.72;1.20;;;19.00;99.90;;;;;;5133322;27;20513;-54
2022/07/06 07:42:32;;;;;;;4.53;1.50;;;18.90;99.90;;;;;;5133119;27;20164;-54
2022/07/06 07:44:58;;;;;;;5.47;1.55;;;18.70;99.90;;;;;;5133610;27;20167;-54
2022/07/06 07:47:24;;;;;;;3.85;1.20;;;18.50;99.90;;;;;;5133230;27;20152;-54
2022/07/06 07:49:49;;;;;;;2.15;1.27;;;18.60;99.90;;;;;;5131787;27;20277;-54
2022/07/06 07:52:15;;;;;;;1.90;1.38;;;18.60;99.90;;;;;;5133028;27;20215;-55
2022/07/06 07:54:41;;;;;;;6.07;1.25;;;18.80;99.90;;;;;;5132970;27;20152;-54
2022/07/06 07:57:07;;;;;;;8.65;1.45;;;18.70;99.90;;;;;;5133178;27;20203;-55
2022/07/06 07:59:33;;;;;;;4.28;1.83;;;18.60;99.90;;;;;;5131835;27;20195;-55
2022/07/06 08:01:59;;;;;;;4.82;1.27;;;18.50;99.90;;;;;;5133163;27;20622;-54
2022/07/06 08:04:25;;;;;;;5.05;1.30;;;18.40;99.90;;;;;;5131804;27;20164;-54
2022/07/06 08:06:51;;;;;;;3.05;1.15;;;18.40;99.90;;;;;;5132902;28;20170;-54
2022/07/06 08:09:17;;;;;;;4.03;1.50;;;18.20;99.90;;;;;;5132805;27;20167;-54
2022/07/06 08:11:43;;;;;;;3.45;1.48;;;18.20;99.90;;;;;;5133148;27;20539;-54
2022/07/06 08:14:09;;;;;;;3.38;1.08;;;18.10;99.90;;;;;;5132794;27;20259;-54
2022/07/06 08:16:35;;;;;;;2.35;1.15;;;18.00;99.90;;;;;;5131458;28;20171;-54
2022/07/06 08:19:01;;;;;;;2.72;1.30;;;18.00;99.90;;;;;;5132766;28;20160;-54
2022/07/06 08:21:27;;;;;;;5.05;1.20;;;18.10;99.90;;;;;;5133076;27;20187;-54
2022/07/06 08:23:54;;;;;;;2.90;1.15;;;18.10;99.90;;;;;;5132746;27;20160;-55
2022/07/06 08:26:20;;;;;;;4.63;1.30;;;18.30;99.90;;;;;;5132606;27;20629;-57
2022/07/06 08:28:46;;;;;;;3.42;1.45;;;18.30;99.90;;;;;;5130945;27;20171;-55
2022/07/06 08:31:12;;;;;;;2.33;1.10;;;18.40;99.90;;;;;;5131218;28;20196;-54
2022/07/06 08:33:41;;;;;;;3.85;1.55;;;18.30;99.90;;;;;;5130033;28;20566;-54
2022/07/06 08:36:07;;;;;;;4.40;1.60;;;18.20;99.90;;;;;;5131277;27;20202;-55
2022/07/06 08:38:32;;;;;;;3.65;1.38;;;18.10;99.90;;;;;;5131651;27;20164;-54
2022/07/06 08:40:58;;;;;;;2.38;1.38;;;18.30;99.90;;;;;;5131492;28;20168;-55
2022/07/06 08:43:24;;;;;;;3.45;1.55;;;18.10;99.90;;;;;;5131188;27;20170;-56
2022/07/06 08:45:53;;;;;;;2.20;1.30;;;18.10;99.90;;;;;;5134257;27;20195;-58
2022/07/06 08:48:21;;;;;;;2.67;1.30;;;17.90;99.90;;;;;;5135193;27;20191;-54
2022/07/06 08:50:46;;;;;;;2.47;1.20;;;18.00;99.90;;;;;;5135083;27;20252;-59
2022/07/06 08:53:12;;;;;;;4.05;1.55;;;18.00;99.90;;;;;;5135056;27;20545;-56
2022/07/06 08:55:40;;;;;;;3.92;1.70;;;18.00;99.90;;;;;;5135271;27;20210;-58
2022/07/06 08:58:07;;;;;;;6.30;1.80;;;18.10;99.90;;;;;;5135400;27;20640;-53
2022/07/06 09:00:33;;;;;;;2.30;1.40;;;18.20;99.90;;;;;;5135094;27;20197;-53
2022/07/06 09:03:00;;;;;;;4.75;1.25;;;18.10;99.90;;;;;;5135191;27;20550;-52
2022/07/06 09:05:27;;;;;;;1.75;1.15;;;18.20;99.90;;;;;;5133883;27;20299;-58
2022/07/06 09:07:53;;;;;;;7.90;1.40;;;18.20;99.90;;;;;;5117184;27;20175;-51
2022/07/06 09:10:21;;;;;;;4.85;1.48;;;18.40;99.90;;;;;;5133294;27;20259;-61
2022/07/06 09:12:48;;;;;;;2.75;1.33;;;18.40;99.90;;;;;;5135057;27;20160;-54
2022/07/06 09:15:14;;;;;;;9.63;1.70;;;18.60;99.90;;;;;;5134595;27;20164;-54
2022/07/06 09:17:41;;;;;;;3.70;1.33;;;18.70;99.90;;;;;;5134676;27;20183;-53
2022/07/06 09:20:11;;;;;;;4.57;1.45;;;18.80;99.90;;;;;;5134469;27;20175;-50
2022/07/06 09:22:38;;;;;;;2.22;1.30;;;19.20;99.90;;;;;;5133156;27;20168;-54
2022/07/06 09:25:12;;;;;;;3.08;1.55;;;19.40;99.90;;;;;;5133986;27;20215;-59
2022/07/06 09:27:40;;;;;;;5.78;1.75;;;19.70;99.90;;;;;;5134338;27;20178;-56
2022/07/06 09:30:07;;;;;;;7.18;1.58;;;20.00;99.90;;;;;;5134520;27;20570;-58
2022/07/06 09:32:45;;;;;;;4.63;1.35;;;20.30;99.90;;;;;;5132532;27;20258;-54
2022/07/06 09:35:22;;;;;;;2.13;1.23;;;20.50;99.90;;;;;;5134869;27;20164;-66
2022/07/06 09:38:06;;;;;;;1.10;0.98;;;20.50;99.90;;;;;;5133458;27;20163;-56
2022/07/06 09:40:35;;;;;;;2.88;1.33;;;20.70;99.90;;;;;;5134127;27;20168;-58
2022/07/06 09:43:20;;;;;;;2.58;1.23;;;20.80;99.90;;;;;;5134135;27;20179;-56
2022/07/06 09:45:48;;;;;;;3.80;1.17;;;20.80;99.90;;;;;;5133910;27;20160;-55
2022/07/06 09:48:22;;;;;;;4.15;1.42;;;21.00;99.90;;;;;;5133952;27;20164;-56
2022/07/06 09:51:06;;;;;;;5.60;1.20;;;20.80;99.90;;;;;;5133640;27;20198;-56
2022/07/06 09:53:35;;;;;;;5.63;1.52;;;20.80;99.90;;;;;;5133997;27;20255;-54
2022/07/06 09:56:01;;;;;;;2.10;1.05;;;21.00;99.90;;;;;;5133481;27;20175;-55
2022/07/06 09:58:28;;;;;;;4.05;1.30;;;20.90;99.90;;;;;;5134390;27;20171;-54
2022/07/06 10:00:53;;;;;;;4.00;1.20;;;20.30;99.90;;;;;;5132605;27;20195;-56
2022/07/06 10:03:19;;;;;;;4.20;1.77;;;20.40;99.90;;;;;;5133667;27;20654;-55
2022/07/06 10:05:47;;;;;;;3.20;1.25;;;20.50;99.90;;;;;;5133684;27;20632;-55
2022/07/06 10:08:16;;;;;;;4.30;1.30;;;20.50;99.90;;;;;;5133714;27;20506;-54
2022/07/06 10:10:44;;;;;;;1.60;1.08;;;20.40;99.90;;;;;;5133334;27;20263;-54
2022/07/06 10:13:10;;;;;;;3.67;1.13;;;21.00;99.90;;;;;;5133462;27;20163;-55
2022/07/06 10:15:38;;;;;;;2.53;1.30;;;21.30;99.90;;;;;;5133650;27;20171;-55
2022/07/06 10:18:06;;;;;;;3.90;1.25;;;21.10;99.90;;;;;;5133376;27;20168;-55
2022/07/06 10:20:37;;;;;;;1.75;1.20;;;21.20;99.90;;;;;;5133332;27;20298;-55
2022/07/06 10:23:05;;;;;;;1.58;1.20;;;21.40;99.90;;;;;;5133495;27;20164;-55
2022/07/06 10:25:33;;;;;;;5.28;1.15;;;21.80;99.90;;;;;;5133071;27;20212;-55
2022/07/06 10:27:59;;;;;;;4.55;1.50;;;21.80;99.90;;;;;;5133491;27;20157;-55
2022/07/06 10:30:26;;;;;;;2.38;1.25;;;21.70;99.90;;;;;;5133364;27;20248;-54
2022/07/06 10:32:55;;;;;;;2.60;1.45;;;21.40;99.90;;;;;;5133042;27;20168;-55
2022/07/06 10:35:21;;;;;;;3.10;1.30;;;21.20;99.90;;;;;;5132942;27;20704;-55
2022/07/06 10:38:04;;;;;;;3.03;1.30;;;21.60;99.90;;;;;;5133201;27;20167;-55
2022/07/06 10:43:32;;;;;;;4.28;1.30;;;21.80;99.90;;;;;;5133003;27;20211;-55
2022/07/06 10:45:58;;;;;;;5.05;1.30;;;21.30;99.90;;;;;;5133110;27;20546;-54
2022/07/06 10:48:24;;;;;;;5.90;1.30;;;21.00;99.90;;;;;;5132804;27;20282;-55
2022/07/06 10:50:54;;;;;;;4.50;1.45;;;21.00;99.90;;;;;;5132731;27;20203;-55
2022/07/06 10:53:27;;;;;;;2.75;1.30;;;21.30;99.90;;;;;;5132732;27;20690;-55
2022/07/06 10:55:57;;;;;;;7.15;1.70;;;21.70;99.90;;;;;;5132570;27;20170;-54
2022/07/06 10:58:51;;;;;;;2.83;1.50;;;21.70;99.90;;;;;;5132824;27;20528;-55
2022/07/06 11:01:18;;;;;;;4.90;1.27;;;22.00;99.90;;;;;;5132573;27;20251;-55
2022/07/06 11:03:49;;;;;;;3.03;1.25;;;22.10;99.90;;;;;;5132480;27;20653;-55
2022/07/06 11:06:16;;;;;;;3.97;1.20;;;22.20;99.90;;;;;;5132706;27;20176;-55
2022/07/06 11:08:52;;;;;;;5.25;1.25;;;22.30;99.90;;;;;;5131808;27;20171;-55
2022/07/06 11:11:19;;;;;;;3.50;1.35;;;22.20;99.90;;;;;;5132377;27;20209;-55
2022/07/06 11:13:58;;;;;;;7.68;1.67;;;22.40;99.90;;;;;;5132597;27;20164;-55
2022/07/06 11:16:26;;;;;;;2.95;1.50;;;23.10;99.90;;;;;;5130992;27;20168;-55
2022/07/06 11:19:03;;;;;;;1.30;1.05;;;23.50;99.90;;;;;;5132223;27;20462;-55
2022/07/06 11:21:46;;;;;;;7.07;1.20;;;23.50;99.90;;;;;;5131626;27;20183;-55
2022/07/06 11:24:20;;;;;;;3.25;1.17;;;23.10;99.90;;;;;;5132243;27;20171;-55
2022/07/06 11:26:47;;;;;;;3.15;1.30;;;23.20;99.90;;;;;;5131911;27;20227;-55
2022/07/06 11:29:14;;;;;;;4.55;1.65;;;23.00;99.90;;;;;;5132002;27;20175;-55
2022/07/06 11:31:42;;;;;;;6.22;1.80;;;23.20;99.90;;;;;;5132022;27;20237;-55
2022/07/06 11:34:09;;;;;;;2.78;1.38;;;23.00;99.90;;;;;;5132244;27;20172;-55
2022/07/06 11:36:36;;;;;;;2.90;1.30;;;22.50;99.90;;;;;;5132152;27;20183;-54
2022/07/06 11:39:02;;;;;;;3.65;1.20;;;22.10;99.90;;;;;;5132023;27;20188;-54
2022/07/06 11:41:28;;;;;;;6.82;1.63;;;22.40;99.90;;;;;;5132459;27;20210;-54
2022/07/06 11:43:53;;;;;;;24.05;2.45;;;22.40;99.90;;;;;;5131845;27;20167;-54
2022/07/06 11:46:34;;;;;;;7.10;1.73;;;22.60;99.90;;;;;;5132001;27;20251;-54
2022/07/06 11:49:05;;;;;;;5.80;1.67;;;22.50;99.90;;;;;;5131820;27;20224;-54
2022/07/06 11:51:36;;;;;;;2.13;1.27;;;22.60;99.90;;;;;;5131861;27;20208;-54
2022/07/06 11:54:14;;;;;;;3.05;1.48;;;22.50;99.90;;;;;;5132120;27;20190;-54
2022/07/06 11:56:52;;;;;;;6.38;1.42;;;22.20;99.90;;;;;;5131280;27;20171;-55
2022/07/06 11:59:26;;;;;;;2.85;1.25;;;22.20;99.90;;;;;;5131713;27;20184;-54
2022/07/06 12:02:06;;;;;;;3.88;1.10;;;22.30;99.90;;;;;;5132148;27;20505;-54
2022/07/06 12:04:36;;;;;;;3.08;1.15;;;22.20;99.90;;;;;;5131653;27;20178;-54
2022/07/06 12:07:09;;;;;;;3.58;1.42;;;22.20;99.90;;;;;;5131654;27;20607;-54
2022/07/06 12:09:36;;;;;;;6.03;1.30;;;21.90;99.90;;;;;;5131690;27;20187;-54
2022/07/06 12:12:03;;;;;;;2.60;1.13;;;22.10;99.90;;;;;;5131702;27;20185;-55
2022/07/06 12:14:31;;;;;;;5.00;1.23;;;22.10;99.90;;;;;;5131986;27;20199;-54
2022/07/06 12:17:02;;;;;;;2.90;1.20;;;22.10;99.90;;;;;;5131532;27;20176;-54
2022/07/06 12:19:27;;;;;;;2.35;0.80;;;22.30;99.90;;;;;;5134803;27;20178;-55
2022/07/06 12:21:53;;;;;;;4.18;1.20;;;22.20;99.90;;;;;;5134157;27;20163;-54
2022/07/06 12:24:21;;;;;;;6.20;0.93;;;22.20;99.90;;;;;;5135847;27;20171;-54
2022/07/06 12:26:48;;;;;;;4.38;1.38;;;22.30;99.90;;;;;;5135557;27;20286;-55
2022/07/06 12:29:14;;;;;;;2.47;1.10;;;22.50;99.90;;;;;;5135663;27;20187;-55
2022/07/06 12:31:44;;;;;;;3.47;1.50;;;22.30;99.90;;;;;;5135900;27;20168;-55
2022/07/06 12:34:15;;;;;;;5.72;1.65;;;22.30;99.90;;;;;;5135927;27;20168;-55
2022/07/06 12:36:55;;;;;;;2.47;1.02;;;22.60;99.90;;;;;;5135653;27;20210;-55
2022/07/06 12:39:26;;;;;;;8.68;1.50;;;22.60;99.90;;;;;;5135616;27;20159;-55
2022/07/06 12:42:04;;;;;;;3.25;0.93;;;22.50;99.90;;;;;;5135502;27;20164;-54
2022/07/06 12:44:30;;;;;;;4.60;1.20;;;22.40;99.90;;;;;;5135639;27;20207;-55
2022/07/06 12:47:06;;;;;;;2.53;0.95;;;22.50;99.90;;;;;;5135734;27;20513;-55
2022/07/06 12:49:32;;;;;;;5.03;1.30;;;22.40;99.90;;;;;;5135538;27;20534;-55
2022/07/06 12:52:11;;;;;;;6.22;0.95;;;22.60;99.90;;;;;;5135664;27;20176;-54
2022/07/06 12:54:41;;;;;;;2.55;1.25;;;22.80;99.90;;;;;;5135275;27;20674;-55